sensor_id;sensor_type;location;lat;lon;timestamp;P1;durP1;ratioP1;P2;durP2;ratioP2
73693;SDS011;61997;53.974;11.670;2023-03-01T00:01:21;9.93;;;4.95;;
73693;SDS011;61997;53.974;11.670;2023-03-01T00:03:51;10.57;;;5.05;;
73693;SDS011;61997;53.974;11.670;2023-03-01T00:06:17;10.55;;;5.95;;
73693;SDS011;61997;53.974;11.670;2023-03-01T00:08:43;8.77;;;5.43;;
73693;SDS011;61997;53.974;11.670;2023-03-01T00:11:22;11.30;;;6.13;;
73693;SDS011;61997;53.974;11.670;2023-03-01T00:13:50;10.88;;;5.38;;
73693;SDS011;61997;53.974;11.670;2023-03-01T00:16:17;11.20;;;5.95;;
73693;SDS011;61997;53.974;11.670;2023-03-01T00:18:44;10.70;;;5.75;;
73693;SDS011;61997;53.974;11.670;2023-03-01T00:21:10;15.05;;;6.15;;
73693;SDS011;61997;53.974;11.670;2023-03-01T00:23:37;12.35;;;6.50;;
73693;SDS011;61997;53.974;11.670;2023-03-01T00:26:07;12.93;;;6.40;;
73693;SDS011;61997;53.974;11.670;2023-03-01T00:28:35;12.93;;;6.78;;
73693;SDS011;61997;53.974;11.670;2023-03-01T00:31:04;10.90;;;5.85;;
73693;SDS011;61997;53.974;11.670;2023-03-01T00:33:44;11.85;;;6.25;;
73693;SDS011;61997;53.974;11.670;2023-03-01T00:36:15;11.75;;;5.95;;
73693;SDS011;61997;53.974;11.670;2023-03-01T00:38:42;13.32;;;7.47;;
73693;SDS011;61997;53.974;11.670;2023-03-01T00:41:09;10.68;;;6.07;;
73693;SDS011;61997;53.974;11.670;2023-03-01T00:43:37;13.40;;;7.80;;
73693;SDS011;61997;53.974;11.670;2023-03-01T00:46:08;14.32;;;6.53;;
73693;SDS011;61997;53.974;11.670;2023-03-01T00:48:35;12.23;;;6.60;;
73693;SDS011;61997;53.974;11.670;2023-03-01T00:53:59;10.65;;;6.38;;
73693;SDS011;61997;53.974;11.670;2023-03-01T00:56:27;12.32;;;6.38;;
73693;SDS011;61997;53.974;11.670;2023-03-01T00:58:52;12.95;;;6.65;;
73693;SDS011;61997;53.974;11.670;2023-03-01T01:01:20;16.42;;;7.22;;
73693;SDS011;61997;53.974;11.670;2023-03-01T01:03:49;10.48;;;6.10;;
73693;SDS011;61997;53.974;11.670;2023-03-01T01:06:21;13.27;;;6.70;;
73693;SDS011;61997;53.974;11.670;2023-03-01T01:08:48;11.48;;;6.43;;
73693;SDS011;61997;53.974;11.670;2023-03-01T01:11:15;10.82;;;6.22;;
73693;SDS011;61997;53.974;11.670;2023-03-01T01:13:43;14.02;;;6.90;;
73693;SDS011;61997;53.974;11.670;2023-03-01T01:16:10;9.25;;;5.65;;
73693;SDS011;61997;53.974;11.670;2023-03-01T01:18:35;14.85;;;6.47;;
73693;SDS011;61997;53.974;11.670;2023-03-01T01:21:06;13.80;;;7.28;;
73693;SDS011;61997;53.974;11.670;2023-03-01T01:23:33;12.35;;;6.18;;
73693;SDS011;61997;53.974;11.670;2023-03-01T01:26:04;11.85;;;7.13;;
73693;SDS011;61997;53.974;11.670;2023-03-01T01:28:32;12.23;;;6.45;;
73693;SDS011;61997;53.974;11.670;2023-03-01T01:30:57;12.02;;;6.68;;
73693;SDS011;61997;53.974;11.670;2023-03-01T01:33:23;11.85;;;7.10;;
73693;SDS011;61997;53.974;11.670;2023-03-01T01:35:49;11.82;;;6.00;;
73693;SDS011;61997;53.974;11.670;2023-03-01T01:38:14;12.07;;;6.35;;
73693;SDS011;61997;53.974;11.670;2023-03-01T01:40:43;10.55;;;5.43;;
73693;SDS011;61997;53.974;11.670;2023-03-01T01:43:29;10.68;;;5.88;;
73693;SDS011;61997;53.974;11.670;2023-03-01T01:46:05;13.05;;;6.25;;
73693;SDS011;61997;53.974;11.670;2023-03-01T01:48:44;10.02;;;5.65;;
73693;SDS011;61997;53.974;11.670;2023-03-01T01:53:44;10.00;;;6.13;;
73693;SDS011;61997;53.974;11.670;2023-03-01T01:56:11;9.25;;;5.68;;
73693;SDS011;61997;53.974;11.670;2023-03-01T01:58:38;10.57;;;6.32;;
73693;SDS011;61997;53.974;11.670;2023-03-01T02:01:06;11.32;;;6.15;;
73693;SDS011;61997;53.974;11.670;2023-03-01T02:03:33;11.80;;;5.70;;
73693;SDS011;61997;53.974;11.670;2023-03-01T02:09:12;12.35;;;6.47;;
73693;SDS011;61997;53.974;11.670;2023-03-01T02:11:39;11.63;;;6.13;;
73693;SDS011;61997;53.974;11.670;2023-03-01T02:14:04;9.85;;;5.55;;
73693;SDS011;61997;53.974;11.670;2023-03-01T02:16:30;10.88;;;5.25;;
73693;SDS011;61997;53.974;11.670;2023-03-01T02:18:55;9.90;;;5.70;;
73693;SDS011;61997;53.974;11.670;2023-03-01T02:21:37;11.15;;;6.43;;
73693;SDS011;61997;53.974;11.670;2023-03-01T02:24:28;13.07;;;5.82;;
73693;SDS011;61997;53.974;11.670;2023-03-01T02:27:03;10.13;;;6.30;;
73693;SDS011;61997;53.974;11.670;2023-03-01T02:29:28;7.85;;;5.32;;
73693;SDS011;61997;53.974;11.670;2023-03-01T02:31:54;12.10;;;6.22;;
73693;SDS011;61997;53.974;11.670;2023-03-01T02:34:22;9.45;;;5.20;;
73693;SDS011;61997;53.974;11.670;2023-03-01T02:37:12;10.93;;;5.65;;
73693;SDS011;61997;53.974;11.670;2023-03-01T02:39:40;8.13;;;5.30;;
73693;SDS011;61997;53.974;11.670;2023-03-01T02:42:09;12.13;;;5.32;;
73693;SDS011;61997;53.974;11.670;2023-03-01T02:44:37;8.95;;;5.28;;
73693;SDS011;61997;53.974;11.670;2023-03-01T02:47:03;12.23;;;5.15;;
73693;SDS011;61997;53.974;11.670;2023-03-01T02:49:33;8.93;;;6.13;;
73693;SDS011;61997;53.974;11.670;2023-03-01T02:52:20;10.55;;;5.30;;
73693;SDS011;61997;53.974;11.670;2023-03-01T02:57:12;10.10;;;5.32;;
73693;SDS011;61997;53.974;11.670;2023-03-01T02:59:38;7.95;;;4.80;;
73693;SDS011;61997;53.974;11.670;2023-03-01T03:02:08;9.00;;;5.07;;
73693;SDS011;61997;53.974;11.670;2023-03-01T03:04:45;8.00;;;4.53;;
73693;SDS011;61997;53.974;11.670;2023-03-01T03:07:11;10.45;;;5.68;;
73693;SDS011;61997;53.974;11.670;2023-03-01T03:09:36;9.02;;;4.85;;
73693;SDS011;61997;53.974;11.670;2023-03-01T03:12:02;8.10;;;4.80;;
73693;SDS011;61997;53.974;11.670;2023-03-01T03:14:27;8.80;;;5.32;;
73693;SDS011;61997;53.974;11.670;2023-03-01T03:16:53;8.35;;;4.68;;
73693;SDS011;61997;53.974;11.670;2023-03-01T03:19:18;8.68;;;4.70;;
73693;SDS011;61997;53.974;11.670;2023-03-01T03:21:44;8.90;;;4.88;;
73693;SDS011;61997;53.974;11.670;2023-03-01T03:24:09;8.07;;;4.25;;
73693;SDS011;61997;53.974;11.670;2023-03-01T03:26:35;9.15;;;5.20;;
73693;SDS011;61997;53.974;11.670;2023-03-01T03:29:00;8.20;;;5.05;;
73693;SDS011;61997;53.974;11.670;2023-03-01T03:31:26;8.93;;;4.60;;
73693;SDS011;61997;53.974;11.670;2023-03-01T03:33:52;10.07;;;5.13;;
73693;SDS011;61997;53.974;11.670;2023-03-01T03:36:21;8.55;;;4.40;;
73693;SDS011;61997;53.974;11.670;2023-03-01T03:38:48;7.63;;;4.47;;
73693;SDS011;61997;53.974;11.670;2023-03-01T03:41:14;7.05;;;4.95;;
73693;SDS011;61997;53.974;11.670;2023-03-01T03:43:40;8.15;;;4.93;;
73693;SDS011;61997;53.974;11.670;2023-03-01T03:46:07;9.35;;;4.60;;
73693;SDS011;61997;53.974;11.670;2023-03-01T03:48:33;7.20;;;3.95;;
73693;SDS011;61997;53.974;11.670;2023-03-01T03:51:00;9.15;;;5.05;;
73693;SDS011;61997;53.974;11.670;2023-03-01T03:53:26;7.30;;;4.05;;
73693;SDS011;61997;53.974;11.670;2023-03-01T03:55:52;7.80;;;4.90;;
73693;SDS011;61997;53.974;11.670;2023-03-01T03:58:19;7.68;;;4.38;;
73693;SDS011;61997;53.974;11.670;2023-03-01T04:00:47;5.78;;;4.32;;
73693;SDS011;61997;53.974;11.670;2023-03-01T04:03:14;8.75;;;4.75;;
73693;SDS011;61997;53.974;11.670;2023-03-01T04:05:41;6.90;;;4.05;;
73693;SDS011;61997;53.974;11.670;2023-03-01T04:08:07;9.07;;;4.50;;
73693;SDS011;61997;53.974;11.670;2023-03-01T04:10:37;7.90;;;4.22;;
73693;SDS011;61997;53.974;11.670;2023-03-01T04:13:04;9.73;;;5.00;;
73693;SDS011;61997;53.974;11.670;2023-03-01T04:15:32;6.03;;;4.18;;
73693;SDS011;61997;53.974;11.670;2023-03-01T04:17:58;8.10;;;5.10;;
73693;SDS011;61997;53.974;11.670;2023-03-01T04:20:24;7.75;;;4.30;;
73693;SDS011;61997;53.974;11.670;2023-03-01T04:22:58;7.53;;;4.30;;
73693;SDS011;61997;53.974;11.670;2023-03-01T04:28:04;5.10;;;3.63;;
73693;SDS011;61997;53.974;11.670;2023-03-01T04:30:30;5.97;;;3.90;;
73693;SDS011;61997;53.974;11.670;2023-03-01T04:33:00;6.18;;;3.63;;
73693;SDS011;61997;53.974;11.670;2023-03-01T04:35:27;7.35;;;4.03;;
73693;SDS011;61997;53.974;11.670;2023-03-01T04:37:52;5.78;;;3.58;;
73693;SDS011;61997;53.974;11.670;2023-03-01T04:40:18;8.30;;;4.05;;
73693;SDS011;61997;53.974;11.670;2023-03-01T04:42:43;5.72;;;3.58;;
73693;SDS011;61997;53.974;11.670;2023-03-01T04:45:09;7.57;;;4.40;;
73693;SDS011;61997;53.974;11.670;2023-03-01T04:47:41;6.80;;;4.47;;
73693;SDS011;61997;53.974;11.670;2023-03-01T04:50:11;7.20;;;4.22;;
73693;SDS011;61997;53.974;11.670;2023-03-01T04:52:38;8.50;;;4.30;;
73693;SDS011;61997;53.974;11.670;2023-03-01T04:55:03;7.40;;;3.88;;
73693;SDS011;61997;53.974;11.670;2023-03-01T04:57:30;8.02;;;3.90;;
73693;SDS011;61997;53.974;11.670;2023-03-01T04:59:56;6.55;;;3.72;;
73693;SDS011;61997;53.974;11.670;2023-03-01T05:02:22;7.93;;;4.03;;
73693;SDS011;61997;53.974;11.670;2023-03-01T05:04:48;6.50;;;3.72;;
73693;SDS011;61997;53.974;11.670;2023-03-01T05:07:13;6.75;;;4.18;;
73693;SDS011;61997;53.974;11.670;2023-03-01T05:09:44;6.65;;;3.65;;
73693;SDS011;61997;53.974;11.670;2023-03-01T05:12:13;7.35;;;4.05;;
73693;SDS011;61997;53.974;11.670;2023-03-01T05:14:39;7.75;;;4.18;;
73693;SDS011;61997;53.974;11.670;2023-03-01T05:17:05;6.75;;;3.90;;
73693;SDS011;61997;53.974;11.670;2023-03-01T05:19:31;6.45;;;4.15;;
73693;SDS011;61997;53.974;11.670;2023-03-01T05:21:58;7.75;;;4.45;;
73693;SDS011;61997;53.974;11.670;2023-03-01T05:24:26;6.13;;;3.88;;
73693;SDS011;61997;53.974;11.670;2023-03-01T05:26:52;5.75;;;3.58;;
73693;SDS011;61997;53.974;11.670;2023-03-01T05:29:19;7.22;;;3.97;;
73693;SDS011;61997;53.974;11.670;2023-03-01T05:31:50;6.32;;;3.92;;
73693;SDS011;61997;53.974;11.670;2023-03-01T05:34:22;5.55;;;3.20;;
73693;SDS011;61997;53.974;11.670;2023-03-01T05:36:52;7.50;;;3.88;;
73693;SDS011;61997;53.974;11.670;2023-03-01T05:39:22;5.50;;;3.22;;
73693;SDS011;61997;53.974;11.670;2023-03-01T05:41:56;4.53;;;3.33;;
73693;SDS011;61997;53.974;11.670;2023-03-01T05:44:22;6.18;;;3.35;;
73693;SDS011;61997;53.974;11.670;2023-03-01T05:46:49;6.40;;;3.30;;
73693;SDS011;61997;53.974;11.670;2023-03-01T05:49:15;5.07;;;3.60;;
73693;SDS011;61997;53.974;11.670;2023-03-01T05:51:41;6.18;;;3.67;;
73693;SDS011;61997;53.974;11.670;2023-03-01T05:54:08;8.35;;;4.35;;
73693;SDS011;61997;53.974;11.670;2023-03-01T05:56:34;5.22;;;3.53;;
73693;SDS011;61997;53.974;11.670;2023-03-01T05:59:01;6.00;;;3.85;;
73693;SDS011;61997;53.974;11.670;2023-03-01T06:01:27;7.28;;;3.60;;
73693;SDS011;61997;53.974;11.670;2023-03-01T06:03:59;5.70;;;3.55;;
73693;SDS011;61997;53.974;11.670;2023-03-01T06:06:24;5.50;;;3.55;;
73693;SDS011;61997;53.974;11.670;2023-03-01T06:08:50;4.68;;;3.38;;
73693;SDS011;61997;53.974;11.670;2023-03-01T06:11:16;6.93;;;4.00;;
73693;SDS011;61997;53.974;11.670;2023-03-01T06:13:42;7.35;;;3.47;;
73693;SDS011;61997;53.974;11.670;2023-03-01T06:16:08;5.63;;;3.60;;
73693;SDS011;61997;53.974;11.670;2023-03-01T06:18:35;6.43;;;3.95;;
73693;SDS011;61997;53.974;11.670;2023-03-01T06:21:01;6.50;;;3.58;;
73693;SDS011;61997;53.974;11.670;2023-03-01T06:23:27;6.60;;;3.60;;
73693;SDS011;61997;53.974;11.670;2023-03-01T06:25:53;5.90;;;3.65;;
73693;SDS011;61997;53.974;11.670;2023-03-01T06:28:19;5.25;;;3.40;;
73693;SDS011;61997;53.974;11.670;2023-03-01T06:30:45;6.20;;;3.47;;
73693;SDS011;61997;53.974;11.670;2023-03-01T06:33:11;6.18;;;3.80;;
73693;SDS011;61997;53.974;11.670;2023-03-01T06:35:36;5.30;;;3.25;;
73693;SDS011;61997;53.974;11.670;2023-03-01T06:38:03;7.13;;;3.60;;
73693;SDS011;61997;53.974;11.670;2023-03-01T06:40:29;6.90;;;4.40;;
73693;SDS011;61997;53.974;11.670;2023-03-01T06:42:56;7.35;;;3.90;;
73693;SDS011;61997;53.974;11.670;2023-03-01T06:45:22;5.35;;;3.42;;
73693;SDS011;61997;53.974;11.670;2023-03-01T06:47:48;7.68;;;4.07;;
73693;SDS011;61997;53.974;11.670;2023-03-01T06:50:14;4.97;;;3.00;;
73693;SDS011;61997;53.974;11.670;2023-03-01T06:52:40;7.05;;;3.80;;
73693;SDS011;61997;53.974;11.670;2023-03-01T06:55:05;6.80;;;3.63;;
73693;SDS011;61997;53.974;11.670;2023-03-01T06:57:31;5.50;;;3.38;;
73693;SDS011;61997;53.974;11.670;2023-03-01T06:59:57;5.20;;;3.25;;
73693;SDS011;61997;53.974;11.670;2023-03-01T07:02:22;5.82;;;3.45;;
73693;SDS011;61997;53.974;11.670;2023-03-01T07:04:51;5.53;;;4.03;;
73693;SDS011;61997;53.974;11.670;2023-03-01T07:07:17;6.00;;;3.53;;
73693;SDS011;61997;53.974;11.670;2023-03-01T07:09:46;5.55;;;3.28;;
73693;SDS011;61997;53.974;11.670;2023-03-01T07:12:13;5.75;;;3.40;;
73693;SDS011;61997;53.974;11.670;2023-03-01T07:14:39;6.38;;;3.72;;
73693;SDS011;61997;53.974;11.670;2023-03-01T07:17:04;7.22;;;3.90;;
73693;SDS011;61997;53.974;11.670;2023-03-01T07:19:30;7.43;;;3.92;;
73693;SDS011;61997;53.974;11.670;2023-03-01T07:21:55;6.03;;;3.42;;
73693;SDS011;61997;53.974;11.670;2023-03-01T07:24:21;6.60;;;4.13;;
73693;SDS011;61997;53.974;11.670;2023-03-01T07:26:50;5.78;;;3.67;;
73693;SDS011;61997;53.974;11.670;2023-03-01T07:29:16;7.30;;;3.85;;
73693;SDS011;61997;53.974;11.670;2023-03-01T07:31:42;5.80;;;3.55;;
73693;SDS011;61997;53.974;11.670;2023-03-01T07:34:07;7.32;;;4.60;;
73693;SDS011;61997;53.974;11.670;2023-03-01T07:36:33;6.60;;;3.92;;
73693;SDS011;61997;53.974;11.670;2023-03-01T07:38:58;6.68;;;3.78;;
73693;SDS011;61997;53.974;11.670;2023-03-01T07:41:24;6.47;;;3.97;;
73693;SDS011;61997;53.974;11.670;2023-03-01T07:43:49;8.10;;;4.45;;
73693;SDS011;61997;53.974;11.670;2023-03-01T07:46:15;6.50;;;4.28;;
73693;SDS011;61997;53.974;11.670;2023-03-01T07:48:40;6.10;;;3.95;;
73693;SDS011;61997;53.974;11.670;2023-03-01T07:51:05;7.00;;;3.65;;
73693;SDS011;61997;53.974;11.670;2023-03-01T07:53:32;5.68;;;3.67;;
73693;SDS011;61997;53.974;11.670;2023-03-01T07:56:09;6.57;;;3.55;;
73693;SDS011;61997;53.974;11.670;2023-03-01T07:58:40;6.60;;;4.30;;
73693;SDS011;61997;53.974;11.670;2023-03-01T08:01:07;5.43;;;3.67;;
73693;SDS011;61997;53.974;11.670;2023-03-01T08:03:35;6.88;;;3.83;;
73693;SDS011;61997;53.974;11.670;2023-03-01T08:06:04;6.60;;;3.63;;
73693;SDS011;61997;53.974;11.670;2023-03-01T08:08:31;5.50;;;3.05;;
73693;SDS011;61997;53.974;11.670;2023-03-01T08:10:58;6.25;;;3.78;;
73693;SDS011;61997;53.974;11.670;2023-03-01T08:13:24;7.10;;;3.72;;
73693;SDS011;61997;53.974;11.670;2023-03-01T08:15:50;5.00;;;3.83;;
73693;SDS011;61997;53.974;11.670;2023-03-01T08:18:16;7.30;;;4.03;;
73693;SDS011;61997;53.974;11.670;2023-03-01T08:20:42;6.63;;;3.95;;
73693;SDS011;61997;53.974;11.670;2023-03-01T08:23:07;6.22;;;4.10;;
73693;SDS011;61997;53.974;11.670;2023-03-01T08:25:32;5.78;;;3.83;;
73693;SDS011;61997;53.974;11.670;2023-03-01T08:27:58;7.50;;;4.25;;
73693;SDS011;61997;53.974;11.670;2023-03-01T08:30:23;7.38;;;4.10;;
73693;SDS011;61997;53.974;11.670;2023-03-01T08:32:49;6.95;;;3.80;;
73693;SDS011;61997;53.974;11.670;2023-03-01T08:35:15;6.03;;;3.92;;
73693;SDS011;61997;53.974;11.670;2023-03-01T08:37:41;6.15;;;3.70;;
73693;SDS011;61997;53.974;11.670;2023-03-01T08:40:06;7.55;;;3.75;;
73693;SDS011;61997;53.974;11.670;2023-03-01T08:42:35;6.47;;;3.67;;
73693;SDS011;61997;53.974;11.670;2023-03-01T08:45:03;6.97;;;3.83;;
73693;SDS011;61997;53.974;11.670;2023-03-01T08:47:29;6.70;;;3.85;;
73693;SDS011;61997;53.974;11.670;2023-03-01T08:49:54;7.38;;;3.92;;
73693;SDS011;61997;53.974;11.670;2023-03-01T08:52:20;8.13;;;4.53;;
73693;SDS011;61997;53.974;11.670;2023-03-01T08:54:47;7.20;;;4.32;;
73693;SDS011;61997;53.974;11.670;2023-03-01T08:57:13;6.30;;;3.65;;
73693;SDS011;61997;53.974;11.670;2023-03-01T08:59:38;7.07;;;4.03;;
73693;SDS011;61997;53.974;11.670;2023-03-01T09:02:05;7.22;;;3.78;;
73693;SDS011;61997;53.974;11.670;2023-03-01T09:04:33;7.13;;;3.72;;
73693;SDS011;61997;53.974;11.670;2023-03-01T09:06:58;7.18;;;3.50;;
73693;SDS011;61997;53.974;11.670;2023-03-01T09:09:24;5.60;;;4.22;;
73693;SDS011;61997;53.974;11.670;2023-03-01T09:11:49;6.10;;;3.60;;
73693;SDS011;61997;53.974;11.670;2023-03-01T09:14:15;7.57;;;4.07;;
73693;SDS011;61997;53.974;11.670;2023-03-01T09:16:41;7.57;;;3.88;;
73693;SDS011;61997;53.974;11.670;2023-03-01T09:19:06;7.88;;;4.72;;
73693;SDS011;61997;53.974;11.670;2023-03-01T09:21:32;7.05;;;4.13;;
73693;SDS011;61997;53.974;11.670;2023-03-01T09:23:57;7.50;;;4.30;;
73693;SDS011;61997;53.974;11.670;2023-03-01T09:26:23;6.25;;;3.92;;
73693;SDS011;61997;53.974;11.670;2023-03-01T09:28:50;7.25;;;4.18;;
73693;SDS011;61997;53.974;11.670;2023-03-01T09:31:19;5.93;;;3.85;;
73693;SDS011;61997;53.974;11.670;2023-03-01T09:33:48;8.43;;;4.07;;
73693;SDS011;61997;53.974;11.670;2023-03-01T09:36:17;10.00;;;4.32;;
73693;SDS011;61997;53.974;11.670;2023-03-01T09:38:43;8.43;;;4.65;;
73693;SDS011;61997;53.974;11.670;2023-03-01T09:44:03;7.47;;;4.50;;
73693;SDS011;61997;53.974;11.670;2023-03-01T09:46:57;7.40;;;4.53;;
73693;SDS011;61997;53.974;11.670;2023-03-01T09:49:28;8.13;;;4.40;;
73693;SDS011;61997;53.974;11.670;2023-03-01T09:55:31;8.88;;;5.25;;
73693;SDS011;61997;53.974;11.670;2023-03-01T10:00:54;8.68;;;4.80;;
73693;SDS011;61997;53.974;11.670;2023-03-01T10:03:26;11.57;;;5.55;;
73693;SDS011;61997;53.974;11.670;2023-03-01T10:06:19;9.50;;;5.35;;
73693;SDS011;61997;53.974;11.670;2023-03-01T10:09:28;9.63;;;5.15;;
73693;SDS011;61997;53.974;11.670;2023-03-01T10:11:37;10.70;;;6.05;;
73693;SDS011;61997;53.974;11.670;2023-03-01T10:14:15;12.27;;;5.88;;
73693;SDS011;61997;53.974;11.670;2023-03-01T10:17:02;9.23;;;5.40;;
73693;SDS011;61997;53.974;11.670;2023-03-01T10:19:31;10.00;;;5.35;;
73693;SDS011;61997;53.974;11.670;2023-03-01T10:22:24;9.52;;;6.22;;
73693;SDS011;61997;53.974;11.670;2023-03-01T10:24:51;11.98;;;6.00;;
73693;SDS011;61997;53.974;11.670;2023-03-01T10:28:05;10.77;;;5.47;;
73693;SDS011;61997;53.974;11.670;2023-03-01T10:33:17;11.63;;;7.10;;
73693;SDS011;61997;53.974;11.670;2023-03-01T10:35:43;9.23;;;6.18;;
73693;SDS011;61997;53.974;11.670;2023-03-01T10:38:10;10.20;;;6.10;;
73693;SDS011;61997;53.974;11.670;2023-03-01T10:43:23;11.93;;;5.93;;
73693;SDS011;61997;53.974;11.670;2023-03-01T10:45:54;13.55;;;6.88;;
73693;SDS011;61997;53.974;11.670;2023-03-01T10:48:22;11.50;;;6.25;;
73693;SDS011;61997;53.974;11.670;2023-03-01T10:56:07;12.85;;;6.70;;
73693;SDS011;61997;53.974;11.670;2023-03-01T10:58:34;12.45;;;7.00;;
73693;SDS011;61997;53.974;11.670;2023-03-01T11:03:40;8.82;;;6.13;;
73693;SDS011;61997;53.974;11.670;2023-03-01T11:06:19;10.80;;;7.68;;
73693;SDS011;61997;53.974;11.670;2023-03-01T11:08:48;13.50;;;6.93;;
73693;SDS011;61997;53.974;11.670;2023-03-01T11:11:17;10.82;;;7.35;;
73693;SDS011;61997;53.974;11.670;2023-03-01T11:14:00;10.60;;;6.55;;
73693;SDS011;61997;53.974;11.670;2023-03-01T11:16:38;12.35;;;7.45;;
73693;SDS011;61997;53.974;11.670;2023-03-01T11:21:34;12.77;;;7.28;;
73693;SDS011;61997;53.974;11.670;2023-03-01T11:24:02;12.27;;;7.72;;
73693;SDS011;61997;53.974;11.670;2023-03-01T11:26:29;12.57;;;7.40;;
73693;SDS011;61997;53.974;11.670;2023-03-01T11:28:58;13.63;;;7.60;;
73693;SDS011;61997;53.974;11.670;2023-03-01T11:31:25;14.40;;;8.32;;
73693;SDS011;61997;53.974;11.670;2023-03-01T11:44:34;16.10;;;8.52;;
73693;SDS011;61997;53.974;11.670;2023-03-01T11:52:26;16.42;;;8.15;;
73693;SDS011;61997;53.974;11.670;2023-03-01T11:56:01;15.50;;;8.45;;
73693;SDS011;61997;53.974;11.670;2023-03-01T12:03:28;13.00;;;7.90;;
73693;SDS011;61997;53.974;11.670;2023-03-01T12:05:58;12.90;;;8.52;;
73693;SDS011;61997;53.974;11.670;2023-03-01T12:08:40;14.82;;;7.85;;
73693;SDS011;61997;53.974;11.670;2023-03-01T12:30:25;16.13;;;9.52;;
73693;SDS011;61997;53.974;11.670;2023-03-01T12:44:01;15.60;;;8.77;;
73693;SDS011;61997;53.974;11.670;2023-03-01T12:49:34;15.10;;;8.48;;
73693;SDS011;61997;53.974;11.670;2023-03-01T12:54:43;15.27;;;8.32;;
73693;SDS011;61997;53.974;11.670;2023-03-01T13:02:24;19.77;;;9.30;;
73693;SDS011;61997;53.974;11.670;2023-03-01T13:07:51;15.30;;;8.10;;
73693;SDS011;61997;53.974;11.670;2023-03-01T13:13:22;15.85;;;9.07;;
73693;SDS011;61997;53.974;11.670;2023-03-01T13:15:49;16.13;;;8.40;;
73693;SDS011;61997;53.974;11.670;2023-03-01T13:31:05;20.02;;;9.18;;
73693;SDS011;61997;53.974;11.670;2023-03-01T13:35:59;13.55;;;7.88;;
73693;SDS011;61997;53.974;11.670;2023-03-01T13:46:52;17.08;;;9.15;;
73693;SDS011;61997;53.974;11.670;2023-03-01T13:49:22;17.33;;;8.77;;
73693;SDS011;61997;53.974;11.670;2023-03-01T13:51:50;17.73;;;10.32;;
73693;SDS011;61997;53.974;11.670;2023-03-01T13:54:18;17.25;;;10.25;;
73693;SDS011;61997;53.974;11.670;2023-03-01T13:56:51;18.73;;;9.60;;
73693;SDS011;61997;53.974;11.670;2023-03-01T13:59:19;17.73;;;9.52;;
73693;SDS011;61997;53.974;11.670;2023-03-01T14:01:56;19.58;;;9.52;;
73693;SDS011;61997;53.974;11.670;2023-03-01T14:04:29;15.80;;;9.63;;
73693;SDS011;61997;53.974;11.670;2023-03-01T14:09:48;19.33;;;10.05;;
73693;SDS011;61997;53.974;11.670;2023-03-01T14:14:56;16.00;;;9.77;;
73693;SDS011;61997;53.974;11.670;2023-03-01T14:19:57;16.92;;;9.80;;
73693;SDS011;61997;53.974;11.670;2023-03-01T14:22:25;16.77;;;9.45;;
73693;SDS011;61997;53.974;11.670;2023-03-01T14:25:02;16.48;;;9.00;;
73693;SDS011;61997;53.974;11.670;2023-03-01T14:27:54;18.95;;;10.05;;
73693;SDS011;61997;53.974;11.670;2023-03-01T14:30:31;15.88;;;9.63;;
73693;SDS011;61997;53.974;11.670;2023-03-01T14:33:05;15.35;;;8.90;;
73693;SDS011;61997;53.974;11.670;2023-03-01T14:35:41;19.02;;;9.45;;
73693;SDS011;61997;53.974;11.670;2023-03-01T14:38:19;19.00;;;9.98;;
73693;SDS011;61997;53.974;11.670;2023-03-01T14:41:03;20.42;;;10.77;;
73693;SDS011;61997;53.974;11.670;2023-03-01T14:43:33;21.90;;;11.73;;
73693;SDS011;61997;53.974;11.670;2023-03-01T14:45:58;17.05;;;11.23;;
73693;SDS011;61997;53.974;11.670;2023-03-01T14:48:24;19.95;;;11.48;;
73693;SDS011;61997;53.974;11.670;2023-03-01T14:50:51;22.05;;;11.27;;
73693;SDS011;61997;53.974;11.670;2023-03-01T14:53:18;19.83;;;11.43;;
73693;SDS011;61997;53.974;11.670;2023-03-01T14:55:53;20.13;;;12.38;;
73693;SDS011;61997;53.974;11.670;2023-03-01T14:58:21;19.48;;;11.65;;
73693;SDS011;61997;53.974;11.670;2023-03-01T15:00:54;22.83;;;12.63;;
73693;SDS011;61997;53.974;11.670;2023-03-01T15:03:32;22.75;;;12.35;;
73693;SDS011;61997;53.974;11.670;2023-03-01T15:06:02;22.38;;;12.18;;
73693;SDS011;61997;53.974;11.670;2023-03-01T15:08:29;20.55;;;11.80;;
73693;SDS011;61997;53.974;11.670;2023-03-01T15:10:59;23.30;;;13.68;;
73693;SDS011;61997;53.974;11.670;2023-03-01T15:13:25;24.90;;;13.10;;
73693;SDS011;61997;53.974;11.670;2023-03-01T15:16:55;23.33;;;13.18;;
73693;SDS011;61997;53.974;11.670;2023-03-01T15:18:57;20.70;;;13.38;;
73693;SDS011;61997;53.974;11.670;2023-03-01T15:21:26;21.25;;;13.45;;
73693;SDS011;61997;53.974;11.670;2023-03-01T15:26:49;22.25;;;12.55;;
73693;SDS011;61997;53.974;11.670;2023-03-01T15:29:19;25.48;;;13.93;;
73693;SDS011;61997;53.974;11.670;2023-03-01T15:31:54;23.35;;;13.25;;
73693;SDS011;61997;53.974;11.670;2023-03-01T15:34:28;21.55;;;12.43;;
73693;SDS011;61997;53.974;11.670;2023-03-01T15:37:05;25.63;;;13.55;;
73693;SDS011;61997;53.974;11.670;2023-03-01T15:39:43;22.05;;;12.52;;
73693;SDS011;61997;53.974;11.670;2023-03-01T15:47:40;22.98;;;12.82;;
73693;SDS011;61997;53.974;11.670;2023-03-01T15:50:11;24.42;;;13.90;;
73693;SDS011;61997;53.974;11.670;2023-03-01T15:52:45;25.50;;;13.40;;
73693;SDS011;61997;53.974;11.670;2023-03-01T15:55:16;22.65;;;12.73;;
73693;SDS011;61997;53.974;11.670;2023-03-01T15:57:43;24.13;;;13.98;;
73693;SDS011;61997;53.974;11.670;2023-03-01T16:00:10;21.95;;;13.40;;
73693;SDS011;61997;53.974;11.670;2023-03-01T16:02:38;24.73;;;13.13;;
73693;SDS011;61997;53.974;11.670;2023-03-01T16:05:05;22.40;;;12.40;;
73693;SDS011;61997;53.974;11.670;2023-03-01T16:07:30;25.98;;;12.75;;
73693;SDS011;61997;53.974;11.670;2023-03-01T16:09:56;23.65;;;13.07;;
73693;SDS011;61997;53.974;11.670;2023-03-01T16:12:22;20.05;;;11.52;;
73693;SDS011;61997;53.974;11.670;2023-03-01T16:14:49;23.05;;;12.27;;
73693;SDS011;61997;53.974;11.670;2023-03-01T16:17:14;20.35;;;11.32;;
73693;SDS011;61997;53.974;11.670;2023-03-01T16:19:40;17.35;;;10.73;;
73693;SDS011;61997;53.974;11.670;2023-03-01T16:22:06;21.42;;;11.75;;
73693;SDS011;61997;53.974;11.670;2023-03-01T16:24:31;19.42;;;11.65;;
73693;SDS011;61997;53.974;11.670;2023-03-01T16:26:56;21.00;;;11.13;;
73693;SDS011;61997;53.974;11.670;2023-03-01T16:29:22;20.15;;;10.88;;
73693;SDS011;61997;53.974;11.670;2023-03-01T16:31:47;19.20;;;11.27;;
73693;SDS011;61997;53.974;11.670;2023-03-01T16:34:12;20.23;;;11.00;;
73693;SDS011;61997;53.974;11.670;2023-03-01T16:36:38;20.13;;;11.75;;
73693;SDS011;61997;53.974;11.670;2023-03-01T16:39:03;19.95;;;11.18;;
73693;SDS011;61997;53.974;11.670;2023-03-01T16:41:29;17.35;;;11.07;;
73693;SDS011;61997;53.974;11.670;2023-03-01T16:43:54;20.27;;;11.38;;
73693;SDS011;61997;53.974;11.670;2023-03-01T16:46:27;20.02;;;10.55;;
73693;SDS011;61997;53.974;11.670;2023-03-01T16:48:53;19.50;;;11.77;;
73693;SDS011;61997;53.974;11.670;2023-03-01T16:51:20;17.00;;;10.30;;
73693;SDS011;61997;53.974;11.670;2023-03-01T16:53:46;19.38;;;10.50;;
73693;SDS011;61997;53.974;11.670;2023-03-01T16:56:12;14.90;;;9.10;;
73693;SDS011;61997;53.974;11.670;2023-03-01T16:58:38;18.10;;;10.05;;
73693;SDS011;61997;53.974;11.670;2023-03-01T17:01:07;16.55;;;10.50;;
73693;SDS011;61997;53.974;11.670;2023-03-01T17:03:40;17.25;;;10.40;;